Terminal Aerodrome Forecast
Issued by NWS

Home | Current Version | Previous Version | Text Only | Print | Product List | Glossary On
Versions: 1 2 3 4 5 6 7 8 9 10 11 12
000
FTUS43 KIND 050520
TAFBMG
TAF
KBMG 050520Z 0506/0606 VRB03KT P6SM BKN150
     FM050800 VRB01KT 3SM BR BKN150
     FM051300 09005KT P6SM BKN150
      AMD LTD TO CLD VIS AND WIND TIL 051300=

USA.gov is the U.S. government's official web portal to all federal, state and local government web resources and services.